Time,TemperatureF,DewpointF,PressureIn,WindDirection,WindDirectionDegrees,WindSpeedMPH,WindSpeedGustMPH,Humidity,HourlyPrecipIn,Conditions,Clouds,dailyrainin,SoftwareType,DateUTC
2013-06-30 00:00:00,69.4,68.5,29.77,South,173,1.0,1.0,97,0.00,,,0.42,Wunderground v.1.15,2013-06-30 04:00:00,
2013-06-30 00:05:00,69.3,68.4,29.77,South,173,2.0,2.0,97,0.00,,,0.00,Wunderground v.1.15,2013-06-30 04:05:00,
2013-06-30 00:10:00,69.3,68.4,29.77,South,173,1.0,1.0,97,0.00,,,0.00,Wunderground v.1.15,2013-06-30 04:10:00,
2013-06-30 00:15:00,69.4,68.5,29.76,South,187,1.0,1.0,97,0.00,,,0.00,Wunderground v.1.15,2013-06-30 04:15:00,
2013-06-30 00:20:00,69.4,68.5,29.76,South,188,1.0,1.0,97,0.00,,,0.00,Wunderground v.1.15,2013-06-30 04:20:00,
2013-06-30 00:25:00,69.4,68.5,29.76,South,187,1.0,1.0,97,0.00,,,0.00,Wunderground v.1.15,2013-06-30 04:25:00,
2013-06-30 00:35:00,69.5,68.6,29.76,South,188,1.0,2.0,97,0.00,,,0.00,Wunderground v.1.15,2013-06-30 04:35:00,
2013-06-30 00:40:00,69.7,68.8,29.76,South,182,2.0,2.0,97,0.00,,,0.00,Wunderground v.1.15,2013-06-30 04:40:00,
2013-06-30 00:45:00,69.7,68.8,29.75,South,182,1.0,2.0,97,0.00,,,0.00,Wunderground v.1.15,2013-06-30 04:45:00,
2013-06-30 00:55:00,69.9,69.0,29.76,SSW,192,1.0,3.0,97,0.00,,,0.00,Wunderground v.1.15,2013-06-30 04:55:00,
2013-06-30 01:00:00,70.0,69.1,29.75,SSE,158,2.0,3.0,97,0.00,,,0.00,Wunderground v.1.15,2013-06-30 05:00:00,
2013-06-30 01:10:00,70.3,69.4,29.75,SSE,152,4.0,4.0,97,0.00,,,0.00,Wunderground v.1.15,2013-06-30 05:10:00,
2013-06-30 01:20:00,70.3,69.1,29.75,South,188,3.0,5.0,96,0.00,,,0.00,Wunderground v.1.15,2013-06-30 05:20:00,
2013-06-30 01:30:00,70.1,68.9,29.74,South,174,1.0,1.0,96,0.00,,,0.00,Wunderground v.1.15,2013-06-30 05:30:00,
2013-06-30 01:35:00,70.1,68.9,29.75,South,173,1.0,2.0,96,0.00,,,0.00,Wunderground v.1.15,2013-06-30 05:35:00,
2013-06-30 01:45:00,69.9,68.7,29.75,SSE,155,1.0,2.0,96,0.00,,,0.00,Wunderground v.1.15,2013-06-30 05:45:00,
2013-06-30 01:55:00,70.0,68.8,29.75,SSE,157,2.0,3.0,96,0.00,,,0.00,Wunderground v.1.15,2013-06-30 05:55:00,
2013-06-30 02:05:00,70.0,69.1,29.75,South,175,2.0,3.0,97,0.00,,,0.00,Wunderground v.1.15,2013-06-30 06:05:00,
2013-06-30 02:10:00,70.0,69.1,29.75,South,175,2.0,2.0,97,0.00,,,0.00,Wunderground v.1.15,2013-06-30 06:10:00,
2013-06-30 02:20:00,70.1,69.2,29.75,South,175,1.0,2.0,97,0.00,,,0.00,Wunderground v.1.15,2013-06-30 06:20:00,
2013-06-30 02:25:00,70.1,69.2,29.75,South,175,1.0,2.0,97,0.00,,,0.00,Wunderground v.1.15,2013-06-30 06:25:00,
2013-06-30 02:35:00,70.2,69.3,29.74,South,175,1.0,2.0,97,0.00,,,0.00,Wunderground v.1.15,2013-06-30 06:35:00,
2013-06-30 02:45:00,70.3,69.4,29.74,SSE,155,1.0,1.0,97,0.00,,,0.00,Wunderground v.1.15,2013-06-30 06:45:00,
2013-06-30 02:50:00,70.4,69.5,29.74,South,171,1.0,2.0,97,0.00,,,0.00,Wunderground v.1.15,2013-06-30 06:50:00,
2013-06-30 02:55:00,70.5,69.6,29.74,South,171,1.0,2.0,97,0.00,,,0.00,Wunderground v.1.15,2013-06-30 06:55:00,
2013-06-30 03:05:00,70.6,69.7,29.75,SSW,198,2.0,4.0,97,0.00,,,0.00,Wunderground v.1.15,2013-06-30 07:05:00,
2013-06-30 03:10:00,70.7,69.8,29.75,South,169,2.0,2.0,97,0.00,,,0.00,Wunderground v.1.15,2013-06-30 07:10:00,
2013-06-30 03:20:00,71.1,70.2,29.74,SSE,161,3.0,3.0,97,0.00,,,0.00,Wunderground v.1.15,2013-06-30 07:20:00,
2013-06-30 03:25:00,71.2,70.6,29.74,South,169,3.0,3.0,98,0.00,,,0.00,Wunderground v.1.15,2013-06-30 07:25:00,
2013-06-30 03:35:00,71.2,70.3,29.75,South,170,1.0,2.0,97,0.00,,,0.00,Wunderground v.1.15,2013-06-30 07:35:00,
2013-06-30 03:40:00,71.2,70.3,29.75,South,170,0.0,0.0,97,0.00,,,0.00,Wunderground v.1.15,2013-06-30 07:40:00,
2013-06-30 03:50:00,71.3,70.7,29.75,SSE,165,2.0,2.0,98,0.00,,,0.00,Wunderground v.1.15,2013-06-30 07:50:00,
2013-06-30 04:00:00,71.3,70.7,29.75,NNW,347,2.0,2.0,98,0.00,,,0.01,Wunderground v.1.15,2013-06-30 08:00:00,
2013-06-30 04:10:00,71.1,70.5,29.75,SSW,192,2.0,3.0,98,0.00,,,0.01,Wunderground v.1.15,2013-06-30 08:10:00,
2013-06-30 04:15:00,71.0,70.1,29.75,SSW,198,2.0,3.0,97,0.00,,,0.01,Wunderground v.1.15,2013-06-30 08:15:00,
2013-06-30 04:20:00,70.9,70.0,29.75,South,189,1.0,2.0,97,0.00,,,0.01,Wunderground v.1.15,2013-06-30 08:20:00,
2013-06-30 04:30:00,70.6,69.7,29.74,South,175,1.0,2.0,97,0.00,,,0.01,Wunderground v.1.15,2013-06-30 08:30:00,
2013-06-30 04:40:00,70.4,69.5,29.74,South,175,0.0,0.0,97,0.00,,,0.01,Wunderground v.1.15,2013-06-30 08:40:00,
2013-06-30 04:45:00,70.3,69.4,29.74,South,175,0.0,0.0,97,0.00,,,0.01,Wunderground v.1.15,2013-06-30 08:45:00,
2013-06-30 04:50:00,70.2,69.3,29.74,South,175,0.0,0.0,97,0.00,,,0.01,Wunderground v.1.15,2013-06-30 08:50:00,
2013-06-30 04:55:00,70.1,69.2,29.74,South,175,0.0,1.0,97,0.00,,,0.01,Wunderground v.1.15,2013-06-30 08:55:00,
2013-06-30 05:05:00,69.9,69.0,29.74,South,175,0.0,0.0,97,0.00,,,0.01,Wunderground v.1.15,2013-06-30 09:05:00,
2013-06-30 05:10:00,69.8,68.9,29.74,South,175,0.0,0.0,97,0.00,,,0.01,Wunderground v.1.15,2013-06-30 09:10:00,
2013-06-30 05:20:00,69.6,68.7,29.74,South,175,0.0,0.0,97,0.00,,,0.01,Wunderground v.1.15,2013-06-30 09:20:00,
2013-06-30 05:25:00,69.6,68.7,29.74,South,175,0.0,0.0,97,0.00,,,0.01,Wunderground v.1.15,2013-06-30 09:25:00,
2013-06-30 05:35:00,69.6,68.7,29.75,South,175,0.0,0.0,97,0.00,,,0.01,Wunderground v.1.15,2013-06-30 09:35:00,
2013-06-30 05:40:00,69.7,68.8,29.75,South,175,0.0,0.0,97,0.00,,,0.01,Wunderground v.1.15,2013-06-30 09:40:00,
2013-06-30 05:50:00,69.8,69.2,29.75,South,175,0.0,0.0,98,0.00,,,0.01,Wunderground v.1.15,2013-06-30 09:50:00,
2013-06-30 05:55:00,69.9,69.3,29.75,South,175,1.0,1.0,98,0.00,,,0.01,Wunderground v.1.15,2013-06-30 09:55:00,
2013-06-30 06:05:00,70.0,69.4,29.75,South,175,1.0,2.0,98,0.00,,,0.01,Wunderground v.1.15,2013-06-30 10:05:00,
2013-06-30 06:10:00,70.0,69.4,29.76,South,175,1.0,1.0,98,0.00,,,0.01,Wunderground v.1.15,2013-06-30 10:10:00,
2013-06-30 06:15:00,70.1,69.5,29.75,South,175,0.0,1.0,98,0.00,,,0.01,Wunderground v.1.15,2013-06-30 10:15:00,
2013-06-30 06:20:00,70.1,69.5,29.76,South,175,0.0,0.0,98,0.00,,,0.01,Wunderground v.1.15,2013-06-30 10:20:00,
2013-06-30 06:30:00,70.2,69.6,29.76,South,174,1.0,2.0,98,0.00,,,0.01,Wunderground v.1.15,2013-06-30 10:30:00,
2013-06-30 06:35:00,70.3,69.7,29.76,South,174,1.0,2.0,98,0.00,,,0.01,Wunderground v.1.15,2013-06-30 10:35:00,
2013-06-30 06:45:00,70.4,69.8,29.76,South,173,0.0,2.0,98,0.00,,,0.01,Wunderground v.1.15,2013-06-30 10:45:00,
2013-06-30 06:50:00,70.4,69.8,29.76,South,173,0.0,0.0,98,0.00,,,0.01,Wunderground v.1.15,2013-06-30 10:50:00,
2013-06-30 07:00:00,70.6,70.0,29.77,South,187,1.0,2.0,98,0.00,,,0.01,Wunderground v.1.15,2013-06-30 11:00:00,
2013-06-30 07:05:00,70.8,70.2,29.77,South,182,1.0,2.0,98,0.00,,,0.01,Wunderground v.1.15,2013-06-30 11:05:00,
2013-06-30 07:10:00,70.9,70.3,29.77,South,171,1.0,2.0,98,0.00,,,0.01,Wunderground v.1.15,2013-06-30 11:10:00,
2013-06-30 07:20:00,71.0,70.4,29.77,South,172,3.0,3.0,98,0.00,,,0.01,Wunderground v.1.15,2013-06-30 11:20:00,
2013-06-30 07:25:00,71.1,70.5,29.77,South,176,3.0,3.0,98,0.00,,,0.01,Wunderground v.1.15,2013-06-30 11:25:00,
2013-06-30 07:35:00,71.2,70.6,29.78,SSE,160,2.0,3.0,98,0.00,,,0.01,Wunderground v.1.15,2013-06-30 11:35:00,
2013-06-30 07:40:00,71.3,70.7,29.78,SSE,159,3.0,3.0,98,0.00,,,0.01,Wunderground v.1.15,2013-06-30 11:40:00,
2013-06-30 07:45:00,71.3,70.7,29.78,South,178,3.0,3.0,98,0.00,,,0.01,Wunderground v.1.15,2013-06-30 11:45:00,
2013-06-30 07:55:00,71.5,70.9,29.79,South,186,1.0,2.0,98,0.00,,,0.01,Wunderground v.1.15,2013-06-30 11:55:00,
2013-06-30 08:05:00,71.7,71.1,29.79,South,169,1.0,2.0,98,0.00,,,0.01,Wunderground v.1.15,2013-06-30 12:05:00,
2013-06-30 08:10:00,71.8,71.2,29.79,South,170,1.0,3.0,98,0.00,,,0.01,Wunderground v.1.15,2013-06-30 12:10:00,
2013-06-30 08:20:00,72.0,71.4,29.80,SSW,213,3.0,3.0,98,0.00,,,0.01,Wunderground v.1.15,2013-06-30 12:20:00,
2013-06-30 08:25:00,72.1,71.5,29.79,SSE,165,3.0,3.0,98,0.00,,,0.01,Wunderground v.1.15,2013-06-30 12:25:00,
2013-06-30 08:35:00,72.2,71.3,29.79,SSE,163,3.0,3.0,97,0.00,,,0.01,Wunderground v.1.15,2013-06-30 12:35:00,
2013-06-30 08:40:00,72.4,71.8,29.79,South,172,2.0,3.0,98,0.00,,,0.01,Wunderground v.1.15,2013-06-30 12:40:00,
2013-06-30 08:50:00,72.8,71.9,29.80,South,172,2.0,3.0,97,0.00,,,0.01,Wunderground v.1.15,2013-06-30 12:50:00,
2013-06-30 09:00:00,73.3,72.4,29.80,South,173,2.0,2.0,97,0.00,,,0.01,Wunderground v.1.15,2013-06-30 13:00:00,
2013-06-30 09:05:00,73.4,72.2,29.80,SSW,193,2.0,4.0,96,0.00,,,0.01,Wunderground v.1.15,2013-06-30 13:05:00,
2013-06-30 09:15:00,73.5,72.3,29.80,South,169,2.0,3.0,96,0.00,,,0.01,Wunderground v.1.15,2013-06-30 13:15:00,
2013-06-30 09:25:00,73.7,72.2,29.81,SSW,198,3.0,3.0,95,0.00,,,0.01,Wunderground v.1.15,2013-06-30 13:25:00,
2013-06-30 09:30:00,73.9,72.4,29.80,South,190,3.0,3.0,95,0.00,,,0.01,Wunderground v.1.15,2013-06-30 13:30:00,
2013-06-30 09:35:00,74.3,72.8,29.80,SSE,156,3.0,3.0,95,0.00,,,0.01,Wunderground v.1.15,2013-06-30 13:35:00,
2013-06-30 09:45:00,75.0,72.8,29.81,SSE,160,3.0,3.0,93,0.00,,,0.01,Wunderground v.1.15,2013-06-30 13:45:00,
2013-06-30 09:55:00,75.3,73.1,29.80,WSW,252,2.0,3.0,93,0.00,,,0.01,Wunderground v.1.15,2013-06-30 13:55:00,
2013-06-30 10:05:00,75.6,73.1,29.80,South,190,2.0,2.0,92,0.00,,,0.01,Wunderground v.1.15,2013-06-30 14:05:00,
2013-06-30 10:15:00,75.7,72.9,29.80,South,182,3.0,5.0,91,0.00,,,0.01,Wunderground v.1.15,2013-06-30 14:15:00,
2013-06-30 10:20:00,76.0,73.2,29.80,SW,217,2.0,2.0,91,0.00,,,0.01,Wunderground v.1.15,2013-06-30 14:20:00,
2013-06-30 10:30:00,76.4,72.9,29.80,WNW,285,2.0,3.0,89,0.00,,,0.01,Wunderground v.1.15,2013-06-30 14:30:00,
2013-06-30 10:35:00,76.5,73.3,29.80,West,277,2.0,3.0,90,0.00,,,0.01,Wunderground v.1.15,2013-06-30 14:35:00,
2013-06-30 10:45:00,76.4,72.6,29.81,WSW,252,2.0,5.0,88,0.00,,,0.01,Wunderground v.1.15,2013-06-30 14:45:00,
2013-06-30 10:50:00,76.2,72.7,29.81,West,277,2.0,3.0,89,0.00,,,0.01,Wunderground v.1.15,2013-06-30 14:50:00,
2013-06-30 11:00:00,76.3,73.1,29.81,WSW,247,1.0,1.0,90,0.00,,,0.01,Wunderground v.1.15,2013-06-30 15:00:00,
2013-06-30 11:05:00,76.8,73.3,29.81,NW,323,1.0,1.0,89,0.00,,,0.01,Wunderground v.1.15,2013-06-30 15:05:00,
2013-06-30 11:10:00,77.4,73.6,29.81,WNW,287,2.0,4.0,88,0.00,,,0.01,Wunderground v.1.15,2013-06-30 15:10:00,
2013-06-30 11:20:00,78.4,73.9,29.81,South,185,3.0,3.0,86,0.00,,,0.01,Wunderground v.1.15,2013-06-30 15:20:00,
2013-06-30 11:25:00,78.7,73.5,29.81,South,186,3.0,4.0,84,0.00,,,0.01,Wunderground v.1.15,2013-06-30 15:25:00,
2013-06-30 11:30:00,78.8,73.2,29.81,South,174,3.0,3.0,83,0.00,,,0.01,Wunderground v.1.15,2013-06-30 15:30:00,
2013-06-30 11:40:00,79.1,73.5,29.81,SSE,155,3.0,5.0,83,0.00,,,0.01,Wunderground v.1.15,2013-06-30 15:40:00,
2013-06-30 11:50:00,78.7,73.1,29.81,SSW,208,3.0,3.0,83,0.00,,,0.01,Wunderground v.1.15,2013-06-30 15:50:00,
2013-06-30 12:00:00,78.2,73.0,29.81,SSW,207,2.0,4.0,84,0.00,,,0.01,Wunderground v.1.15,2013-06-30 16:00:00,
2013-06-30 12:05:00,77.8,72.9,29.81,SSW,193,3.0,4.0,85,0.00,,,0.01,Wunderground v.1.15,2013-06-30 16:05:00,
2013-06-30 12:15:00,77.8,73.6,29.81,South,170,2.0,3.0,87,0.00,,,0.01,Wunderground v.1.15,2013-06-30 16:15:00,
2013-06-30 12:20:00,77.9,73.4,29.81,South,171,1.0,1.0,86,0.00,,,0.01,Wunderground v.1.15,2013-06-30 16:20:00,
2013-06-30 12:25:00,78.7,74.5,29.81,South,171,1.0,1.0,87,0.00,,,0.01,Wunderground v.1.15,2013-06-30 16:25:00,
2013-06-30 12:35:00,80.1,74.8,29.80,SE,146,1.0,1.0,84,0.00,,,0.01,Wunderground v.1.15,2013-06-30 16:35:00,
2013-06-30 12:40:00,80.7,74.0,29.80,SW,222,1.0,1.0,80,0.00,,,0.01,Wunderground v.1.15,2013-06-30 16:40:00,
2013-06-30 12:50:00,81.5,74.7,29.80,SW,221,2.0,2.0,80,0.00,,,0.01,Wunderground v.1.15,2013-06-30 16:50:00,
2013-06-30 13:00:00,81.6,74.5,29.79,SE,142,2.0,4.0,79,0.00,,,0.01,Wunderground v.1.15,2013-06-30 17:00:00,
2013-06-30 13:05:00,81.4,73.5,29.78,SE,142,3.0,4.0,77,0.00,,,0.01,Wunderground v.1.15,2013-06-30 17:05:00,
2013-06-30 13:15:00,81.8,72.3,29.78,ENE,76,1.0,2.0,73,0.00,,,0.01,Wunderground v.1.15,2013-06-30 17:15:00,
2013-06-30 13:25:00,81.8,73.5,29.78,ESE,115,3.0,6.0,76,0.00,,,0.01,Wunderground v.1.15,2013-06-30 17:25:00,
2013-06-30 13:35:00,82.5,74.6,29.77,ESE,117,1.0,2.0,77,0.00,,,0.01,Wunderground v.1.15,2013-06-30 17:35:00,
2013-06-30 13:40:00,83.0,73.4,29.77,SSE,164,1.0,1.0,73,0.00,,,0.01,Wunderground v.1.15,2013-06-30 17:40:00,
2013-06-30 13:50:00,82.9,73.4,29.77,SSW,211,3.0,3.0,73,0.00,,,0.01,Wunderground v.1.15,2013-06-30 17:50:00,
2013-06-30 13:55:00,82.9,73.4,29.77,WSW,238,2.0,3.0,73,0.00,,,0.01,Wunderground v.1.15,2013-06-30 17:55:00,
2013-06-30 14:05:00,82.9,73.4,29.77,SW,223,1.0,2.0,73,0.00,,,0.01,Wunderground v.1.15,2013-06-30 18:05:00,
2013-06-30 14:15:00,83.0,73.4,29.77,NNW,336,2.0,4.0,73,0.00,,,0.01,Wunderground v.1.15,2013-06-30 18:15:00,
2013-06-30 14:20:00,83.0,73.0,29.77,West,259,2.0,2.0,72,0.00,,,0.01,Wunderground v.1.15,2013-06-30 18:20:00,
2013-06-30 14:25:00,82.9,72.9,29.76,West,259,1.0,2.0,72,0.00,,,0.01,Wunderground v.1.15,2013-06-30 18:25:00,
2013-06-30 15:35:00,80.6,75.7,29.75,SSE,150,0.0,6.0,85,0.00,,,0.01,Wunderground v.1.15,2013-06-30 19:35:00,
2013-06-30 15:40:00,80.2,75.6,29.76,SSE,150,0.0,6.0,86,0.00,,,0.01,Wunderground v.1.15,2013-06-30 19:40:00,
2013-06-30 15:45:00,79.7,75.8,29.76,SSE,150,0.0,6.0,88,0.00,,,0.01,Wunderground v.1.15,2013-06-30 19:45:00,
2013-06-30 15:50:00,79.3,75.4,29.76,SSE,150,0.0,0.0,88,0.00,,,0.01,Wunderground v.1.15,2013-06-30 19:50:00,
2013-06-30 16:00:00,78.8,75.6,29.76,SSE,150,0.0,0.0,90,0.00,,,0.01,Wunderground v.1.15,2013-06-30 20:00:00,
2013-06-30 16:05:00,78.7,75.8,29.77,SSE,149,0.0,0.0,91,0.00,,,0.02,Wunderground v.1.15,2013-06-30 20:05:00,
2013-06-30 16:10:00,78.3,75.8,29.77,SSE,150,0.0,0.0,92,0.00,,,0.02,Wunderground v.1.15,2013-06-30 20:10:00,
2013-06-30 16:20:00,78.0,76.1,29.78,SSE,149,0.0,0.0,94,0.07,,,0.03,Wunderground v.1.15,2013-06-30 20:20:00,
2013-06-30 16:30:00,77.5,76.0,29.77,South,187,0.0,0.0,95,0.07,,,0.04,Wunderground v.1.15,2013-06-30 20:30:00,
2013-06-30 16:35:00,77.1,75.6,29.77,South,187,0.0,0.0,95,0.05,,,0.04,Wunderground v.1.15,2013-06-30 20:35:00,
2013-06-30 16:40:00,76.8,75.3,29.77,South,187,0.0,0.0,95,0.00,,,0.04,Wunderground v.1.15,2013-06-30 20:40:00,
2013-06-30 16:50:00,76.6,75.1,29.77,NNE,19,0.0,0.0,95,0.00,,,0.04,Wunderground v.1.15,2013-06-30 20:50:00,
2013-06-30 16:55:00,76.6,75.1,29.77,West,262,0.0,0.0,95,0.00,,,0.04,Wunderground v.1.15,2013-06-30 20:55:00,
2013-06-30 17:00:00,76.6,75.4,29.77,West,262,0.0,0.0,96,0.00,,,0.04,Wunderground v.1.15,2013-06-30 21:00:00,
2013-06-30 17:05:00,76.6,75.4,29.77,SSE,151,0.0,4.0,96,0.00,,,0.04,Wunderground v.1.15,2013-06-30 21:05:00,
2013-06-30 17:15:00,74.9,73.4,29.78,SE,127,8.0,10.0,95,0.00,,,0.04,Wunderground v.1.15,2013-06-30 21:15:00,
2013-06-30 17:25:00,73.9,72.4,29.78,SE,130,7.0,9.0,95,0.00,,,0.04,Wunderground v.1.15,2013-06-30 21:25:00,
2013-06-30 17:35:00,72.8,71.6,29.77,SE,138,7.0,7.0,96,0.00,,,0.05,Wunderground v.1.15,2013-06-30 21:35:00,
2013-06-30 17:40:00,72.4,71.2,29.77,SE,138,5.0,5.0,96,0.11,,,0.06,Wunderground v.1.15,2013-06-30 21:40:00,
2013-06-30 17:50:00,72.0,70.8,29.78,South,180,3.0,6.0,96,0.07,,,0.07,Wunderground v.1.15,2013-06-30 21:50:00,
2013-06-30 17:55:00,71.9,70.7,29.78,South,180,2.0,6.0,96,0.07,,,0.07,Wunderground v.1.15,2013-06-30 21:55:00,
2013-06-30 18:05:00,71.9,71.0,29.79,SE,144,3.0,6.0,97,0.00,,,0.07,Wunderground v.1.15,2013-06-30 22:05:00,
2013-06-30 18:10:00,71.8,70.9,29.78,SE,130,4.0,4.0,97,0.00,,,0.07,Wunderground v.1.15,2013-06-30 22:10:00,
2013-06-30 18:20:00,71.8,70.9,29.78,SE,138,4.0,4.0,97,0.00,,,0.07,Wunderground v.1.15,2013-06-30 22:20:00,
2013-06-30 18:25:00,71.9,71.0,29.79,SE,145,4.0,4.0,97,0.00,,,0.07,Wunderground v.1.15,2013-06-30 22:25:00,
2013-06-30 18:35:00,71.9,71.0,29.78,ESE,111,4.0,4.0,97,0.00,,,0.07,Wunderground v.1.15,2013-06-30 22:35:00,
2013-06-30 18:45:00,71.8,70.9,29.79,SE,125,4.0,9.0,97,0.00,,,0.07,Wunderground v.1.15,2013-06-30 22:45:00,
2013-06-30 18:50:00,71.8,70.9,29.79,SE,145,4.0,4.0,97,0.00,,,0.07,Wunderground v.1.15,2013-06-30 22:50:00,
2013-06-30 19:00:00,72.0,70.8,29.79,SSE,151,2.0,3.0,96,0.00,,,0.07,Wunderground v.1.15,2013-06-30 23:00:00,
2013-06-30 19:10:00,72.1,70.9,29.79,SE,138,3.0,3.0,96,0.00,,,0.07,Wunderground v.1.15,2013-06-30 23:10:00,
2013-06-30 19:15:00,72.1,70.9,29.80,SE,134,3.0,3.0,96,0.00,,,0.07,Wunderground v.1.15,2013-06-30 23:15:00,
2013-06-30 19:20:00,72.1,70.9,29.80,SSE,150,2.0,3.0,96,0.00,,,0.07,Wunderground v.1.15,2013-06-30 23:20:00,
2013-06-30 19:30:00,71.9,70.7,29.80,SSE,167,4.0,5.0,96,0.00,,,0.07,Wunderground v.1.15,2013-06-30 23:30:00,
2013-06-30 19:35:00,71.9,70.7,29.80,SE,137,4.0,5.0,96,0.00,,,0.07,Wunderground v.1.15,2013-06-30 23:35:00,
2013-06-30 19:45:00,71.7,70.5,29.81,SSE,159,3.0,5.0,96,0.00,,,0.07,Wunderground v.1.15,2013-06-30 23:45:00,
2013-06-30 19:50:00,71.5,70.3,29.81,SSE,156,4.0,6.0,96,0.00,,,0.07,Wunderground v.1.15,2013-06-30 23:50:00,
2013-06-30 19:55:00,71.5,70.3,29.81,SE,134,5.0,6.0,96,0.00,,,0.07,Wunderground v.1.15,2013-06-30 23:55:00,
2013-06-30 20:05:00,71.3,70.1,29.82,South,173,4.0,6.0,96,0.00,,,0.07,Wunderground v.1.15,2013-07-01 00:05:00,
2013-06-30 20:10:00,71.3,70.1,29.82,SE,137,5.0,5.0,96,0.00,,,0.07,Wunderground v.1.15,2013-07-01 00:10:00,
2013-06-30 20:20:00,71.2,70.3,29.82,SE,138,4.0,5.0,97,0.00,,,0.07,Wunderground v.1.15,2013-07-01 00:20:00,
2013-06-30 20:25:00,71.2,70.3,29.83,SSE,161,4.0,5.0,97,0.00,,,0.07,Wunderground v.1.15,2013-07-01 00:25:00,
2013-06-30 20:35:00,71.1,70.2,29.83,SSE,152,4.0,4.0,97,0.00,,,0.07,Wunderground v.1.15,2013-07-01 00:35:00,
2013-06-30 20:45:00,71.0,70.1,29.82,SE,144,4.0,5.0,97,0.00,,,0.07,Wunderground v.1.15,2013-07-01 00:45:00,
2013-06-30 20:50:00,70.9,70.0,29.83,SE,141,4.0,4.0,97,0.00,,,0.07,Wunderground v.1.15,2013-07-01 00:50:00,
2013-06-30 20:55:00,70.8,69.9,29.83,SSE,155,4.0,4.0,97,0.00,,,0.07,Wunderground v.1.15,2013-07-01 00:55:00,
2013-06-30 21:05:00,70.7,69.8,29.83,SSE,165,5.0,6.0,97,0.00,,,0.07,Wunderground v.1.15,2013-07-01 01:05:00,
2013-06-30 21:15:00,70.6,69.7,29.82,SSE,155,4.0,4.0,97,0.00,,,0.07,Wunderground v.1.15,2013-07-01 01:15:00,
2013-06-30 21:20:00,70.6,69.7,29.82,SSE,147,3.0,4.0,97,0.00,,,0.07,Wunderground v.1.15,2013-07-01 01:20:00,
2013-06-30 21:30:00,70.4,69.5,29.83,SE,142,4.0,5.0,97,0.00,,,0.07,Wunderground v.1.15,2013-07-01 01:30:00,
2013-06-30 21:35:00,70.4,69.5,29.83,SSE,155,5.0,5.0,97,0.00,,,0.07,Wunderground v.1.15,2013-07-01 01:35:00,
2013-06-30 21:45:00,70.3,69.4,29.83,SSE,156,5.0,5.0,97,0.00,,,0.07,Wunderground v.1.15,2013-07-01 01:45:00,
2013-06-30 21:50:00,70.3,69.4,29.83,SSE,161,5.0,5.0,97,0.00,,,0.07,Wunderground v.1.15,2013-07-01 01:50:00,
2013-06-30 22:00:00,70.3,69.4,29.83,South,187,4.0,4.0,97,0.00,,,0.07,Wunderground v.1.15,2013-07-01 02:00:00,
2013-06-30 22:05:00,70.3,69.4,29.83,SE,145,4.0,4.0,97,0.00,,,0.08,Wunderground v.1.15,2013-07-01 02:05:00,
2013-06-30 22:10:00,70.2,69.3,29.83,SSE,161,4.0,4.0,97,0.00,,,0.08,Wunderground v.1.15,2013-07-01 02:10:00,
2013-06-30 22:20:00,70.1,69.2,29.83,SSE,156,5.0,5.0,97,0.00,,,0.08,Wunderground v.1.15,2013-07-01 02:20:00,
2013-06-30 22:30:00,70.1,69.2,29.84,SE,133,3.0,3.0,97,0.00,,,0.08,Wunderground v.1.15,2013-07-01 02:30:00,
2013-06-30 22:35:00,70.1,69.2,29.84,SE,129,1.0,3.0,97,0.00,,,0.08,Wunderground v.1.15,2013-07-01 02:35:00,
2013-06-30 22:45:00,70.2,69.6,29.84,ENE,74,1.0,2.0,98,0.00,,,0.08,Wunderground v.1.15,2013-07-01 02:45:00,
2013-06-30 22:55:00,70.2,69.6,29.84,ENE,74,0.0,1.0,98,0.00,,,0.08,Wunderground v.1.15,2013-07-01 02:55:00,
2013-06-30 23:00:00,70.1,69.5,29.84,ENE,74,0.0,1.0,98,0.00,,,0.08,Wunderground v.1.15,2013-07-01 03:00:00,
2013-06-30 23:05:00,70.1,69.5,29.84,ENE,74,0.0,1.0,98,0.00,,,0.08,Wunderground v.1.15,2013-07-01 03:05:00,
2013-06-30 23:15:00,70.1,69.5,29.84,ENE,74,0.0,0.0,98,0.00,,,0.08,Wunderground v.1.15,2013-07-01 03:15:00,
2013-06-30 23:20:00,70.1,69.5,29.84,ENE,75,0.0,2.0,98,0.00,,,0.08,Wunderground v.1.15,2013-07-01 03:20:00,
2013-06-30 23:30:00,70.1,69.5,29.84,East,86,0.0,2.0,98,0.00,,,0.08,Wunderground v.1.15,2013-07-01 03:30:00,
2013-06-30 23:35:00,70.0,69.4,29.83,SSE,147,2.0,4.0,98,0.00,,,0.08,Wunderground v.1.15,2013-07-01 03:35:00,
2013-06-30 23:45:00,69.9,69.3,29.83,SSE,165,4.0,4.0,98,0.00,,,0.08,Wunderground v.1.15,2013-07-01 03:45:00,
2013-06-30 23:50:00,69.9,69.3,29.84,SSE,165,2.0,2.0,98,0.00,,,0.08,Wunderground v.1.15,2013-07-01 03:50:00,